sensor_id;sensor_type;location;lat;lon;timestamp;P1;durP1;ratioP1;P2;durP2;ratioP2
68310;SDS011;55157;51.036;17.058;2022-08-11T00:01:47;12.07;;;4.80;;
68310;SDS011;55157;51.036;17.058;2022-08-11T00:04:13;8.60;;;4.70;;
68310;SDS011;55157;51.036;17.058;2022-08-11T00:06:39;9.23;;;4.53;;
68310;SDS011;55157;51.036;17.058;2022-08-11T00:09:06;8.23;;;4.22;;
68310;SDS011;55157;51.036;17.058;2022-08-11T00:11:33;12.18;;;4.93;;
68310;SDS011;55157;51.036;17.058;2022-08-11T00:13:58;12.00;;;4.38;;
68310;SDS011;55157;51.036;17.058;2022-08-11T00:16:25;11.18;;;5.15;;
68310;SDS011;55157;51.036;17.058;2022-08-11T00:18:51;14.65;;;4.97;;
68310;SDS011;55157;51.036;17.058;2022-08-11T00:21:18;14.73;;;4.97;;
68310;SDS011;55157;51.036;17.058;2022-08-11T00:23:45;8.18;;;4.90;;
68310;SDS011;55157;51.036;17.058;2022-08-11T00:26:11;10.85;;;5.30;;
68310;SDS011;55157;51.036;17.058;2022-08-11T00:28:37;10.50;;;4.80;;
68310;SDS011;55157;51.036;17.058;2022-08-11T00:31:03;9.93;;;4.38;;
68310;SDS011;55157;51.036;17.058;2022-08-11T00:33:32;10.88;;;4.63;;
68310;SDS011;55157;51.036;17.058;2022-08-11T00:35:58;10.88;;;4.53;;
68310;SDS011;55157;51.036;17.058;2022-08-11T00:38:25;12.70;;;4.80;;
68310;SDS011;55157;51.036;17.058;2022-08-11T00:40:54;11.88;;;5.22;;
68310;SDS011;55157;51.036;17.058;2022-08-11T00:43:21;9.73;;;4.55;;
68310;SDS011;55157;51.036;17.058;2022-08-11T00:46:00;7.65;;;4.60;;
68310;SDS011;55157;51.036;17.058;2022-08-11T00:48:27;10.48;;;5.43;;
68310;SDS011;55157;51.036;17.058;2022-08-11T00:50:59;9.55;;;5.32;;
68310;SDS011;55157;51.036;17.058;2022-08-11T00:56:15;13.15;;;4.82;;
68310;SDS011;55157;51.036;17.058;2022-08-11T00:58:58;10.32;;;4.88;;
68310;SDS011;55157;51.036;17.058;2022-08-11T01:01:36;9.57;;;4.60;;
68310;SDS011;55157;51.036;17.058;2022-08-11T01:04:16;9.07;;;4.63;;
68310;SDS011;55157;51.036;17.058;2022-08-11T01:06:51;10.38;;;5.38;;
68310;SDS011;55157;51.036;17.058;2022-08-11T01:09:24;10.40;;;5.05;;
68310;SDS011;55157;51.036;17.058;2022-08-11T01:11:55;7.50;;;4.50;;
68310;SDS011;55157;51.036;17.058;2022-08-11T01:14:39;12.30;;;4.50;;
68310;SDS011;55157;51.036;17.058;2022-08-11T01:17:30;13.90;;;5.38;;
68310;SDS011;55157;51.036;17.058;2022-08-11T01:20:09;10.32;;;4.45;;
68310;SDS011;55157;51.036;17.058;2022-08-11T01:22:58;7.47;;;4.72;;
68310;SDS011;55157;51.036;17.058;2022-08-11T01:25:43;8.48;;;4.47;;
68310;SDS011;55157;51.036;17.058;2022-08-11T01:28:29;10.18;;;4.85;;
68310;SDS011;55157;51.036;17.058;2022-08-11T01:39:34;6.57;;;4.50;;
68310;SDS011;55157;51.036;17.058;2022-08-11T01:45:01;8.35;;;5.10;;
68310;SDS011;55157;51.036;17.058;2022-08-11T01:47:30;10.07;;;5.15;;
68310;SDS011;55157;51.036;17.058;2022-08-11T01:50:00;10.35;;;4.72;;
68310;SDS011;55157;51.036;17.058;2022-08-11T01:52:28;7.00;;;4.65;;
68310;SDS011;55157;51.036;17.058;2022-08-11T01:55:02;9.43;;;4.72;;
68310;SDS011;55157;51.036;17.058;2022-08-11T01:57:33;9.75;;;4.68;;
68310;SDS011;55157;51.036;17.058;2022-08-11T02:00:03;12.55;;;6.30;;
68310;SDS011;55157;51.036;17.058;2022-08-11T02:02:32;7.53;;;4.95;;
68310;SDS011;55157;51.036;17.058;2022-08-11T02:05:02;10.80;;;4.22;;
68310;SDS011;55157;51.036;17.058;2022-08-11T02:07:32;7.22;;;4.82;;
68310;SDS011;55157;51.036;17.058;2022-08-11T02:10:03;10.88;;;5.95;;
68310;SDS011;55157;51.036;17.058;2022-08-11T02:12:40;9.75;;;5.57;;
68310;SDS011;55157;51.036;17.058;2022-08-11T02:17:38;11.35;;;5.35;;
68310;SDS011;55157;51.036;17.058;2022-08-11T02:20:06;9.43;;;5.03;;
68310;SDS011;55157;51.036;17.058;2022-08-11T02:22:35;12.38;;;5.22;;
68310;SDS011;55157;51.036;17.058;2022-08-11T02:25:05;11.15;;;5.22;;
68310;SDS011;55157;51.036;17.058;2022-08-11T02:27:33;9.63;;;4.88;;
68310;SDS011;55157;51.036;17.058;2022-08-11T02:30:03;8.05;;;5.03;;
68310;SDS011;55157;51.036;17.058;2022-08-11T02:32:31;15.57;;;5.45;;
68310;SDS011;55157;51.036;17.058;2022-08-11T02:35:00;9.98;;;4.72;;
68310;SDS011;55157;51.036;17.058;2022-08-11T02:37:26;10.75;;;5.25;;
68310;SDS011;55157;51.036;17.058;2022-08-11T02:40:01;7.10;;;4.75;;
68310;SDS011;55157;51.036;17.058;2022-08-11T02:42:34;13.10;;;5.53;;
68310;SDS011;55157;51.036;17.058;2022-08-11T02:45:08;7.60;;;5.47;;
68310;SDS011;55157;51.036;17.058;2022-08-11T02:47:38;16.38;;;5.55;;
68310;SDS011;55157;51.036;17.058;2022-08-11T02:50:12;17.48;;;5.93;;
68310;SDS011;55157;51.036;17.058;2022-08-11T02:52:46;14.40;;;5.68;;
68310;SDS011;55157;51.036;17.058;2022-08-11T02:55:17;10.93;;;5.13;;
68310;SDS011;55157;51.036;17.058;2022-08-11T02:57:46;7.60;;;5.78;;
68310;SDS011;55157;51.036;17.058;2022-08-11T03:00:14;16.77;;;5.57;;
68310;SDS011;55157;51.036;17.058;2022-08-11T03:02:51;9.48;;;5.07;;
68310;SDS011;55157;51.036;17.058;2022-08-11T03:08:13;15.35;;;5.55;;
68310;SDS011;55157;51.036;17.058;2022-08-11T03:10:50;12.05;;;5.32;;
68310;SDS011;55157;51.036;17.058;2022-08-11T03:13:20;9.32;;;5.85;;
68310;SDS011;55157;51.036;17.058;2022-08-11T03:15:47;7.78;;;5.03;;
68310;SDS011;55157;51.036;17.058;2022-08-11T03:18:14;8.68;;;5.93;;
68310;SDS011;55157;51.036;17.058;2022-08-11T03:20:43;12.75;;;6.47;;
68310;SDS011;55157;51.036;17.058;2022-08-11T03:23:12;11.70;;;5.15;;
68310;SDS011;55157;51.036;17.058;2022-08-11T03:25:50;13.27;;;5.57;;
68310;SDS011;55157;51.036;17.058;2022-08-11T03:28:25;11.80;;;5.32;;
68310;SDS011;55157;51.036;17.058;2022-08-11T03:30:51;10.93;;;5.63;;
68310;SDS011;55157;51.036;17.058;2022-08-11T03:33:20;11.85;;;4.80;;
68310;SDS011;55157;51.036;17.058;2022-08-11T03:35:48;9.45;;;5.55;;
68310;SDS011;55157;51.036;17.058;2022-08-11T03:38:17;9.07;;;5.63;;
68310;SDS011;55157;51.036;17.058;2022-08-11T03:40:53;7.60;;;5.13;;
68310;SDS011;55157;51.036;17.058;2022-08-11T03:43:31;7.50;;;5.10;;
68310;SDS011;55157;51.036;17.058;2022-08-11T03:46:00;11.57;;;5.50;;
68310;SDS011;55157;51.036;17.058;2022-08-11T03:48:28;8.98;;;5.90;;
68310;SDS011;55157;51.036;17.058;2022-08-11T03:51:05;7.93;;;4.85;;
68310;SDS011;55157;51.036;17.058;2022-08-11T03:53:47;10.23;;;5.38;;
68310;SDS011;55157;51.036;17.058;2022-08-11T03:56:21;8.68;;;5.75;;
68310;SDS011;55157;51.036;17.058;2022-08-11T04:07:33;8.15;;;4.80;;
68310;SDS011;55157;51.036;17.058;2022-08-11T04:15:33;13.30;;;5.70;;
68310;SDS011;55157;51.036;17.058;2022-08-11T04:20:48;13.43;;;5.85;;
68310;SDS011;55157;51.036;17.058;2022-08-11T04:23:31;14.93;;;5.65;;
68310;SDS011;55157;51.036;17.058;2022-08-11T04:28:52;10.30;;;5.95;;
68310;SDS011;55157;51.036;17.058;2022-08-11T04:31:35;10.18;;;5.65;;
68310;SDS011;55157;51.036;17.058;2022-08-11T04:34:05;15.23;;;5.60;;
68310;SDS011;55157;51.036;17.058;2022-08-11T04:39:38;8.30;;;6.28;;
68310;SDS011;55157;51.036;17.058;2022-08-11T04:42:12;14.18;;;6.60;;
68310;SDS011;55157;51.036;17.058;2022-08-11T04:45:06;9.93;;;5.78;;
68310;SDS011;55157;51.036;17.058;2022-08-11T04:50:17;17.92;;;8.18;;
68310;SDS011;55157;51.036;17.058;2022-08-11T04:55:35;16.23;;;5.95;;
68310;SDS011;55157;51.036;17.058;2022-08-11T04:58:14;18.52;;;7.25;;
68310;SDS011;55157;51.036;17.058;2022-08-11T05:00:43;10.70;;;6.63;;
68310;SDS011;55157;51.036;17.058;2022-08-11T05:03:28;11.23;;;6.18;;
68310;SDS011;55157;51.036;17.058;2022-08-11T05:06:09;13.93;;;5.75;;
68310;SDS011;55157;51.036;17.058;2022-08-11T05:08:49;16.67;;;5.70;;
68310;SDS011;55157;51.036;17.058;2022-08-11T05:11:37;13.27;;;5.93;;
68310;SDS011;55157;51.036;17.058;2022-08-11T05:16:53;16.48;;;6.28;;
68310;SDS011;55157;51.036;17.058;2022-08-11T05:19:21;14.02;;;5.70;;
68310;SDS011;55157;51.036;17.058;2022-08-11T05:21:47;13.18;;;5.43;;
68310;SDS011;55157;51.036;17.058;2022-08-11T05:24:16;17.13;;;6.00;;
68310;SDS011;55157;51.036;17.058;2022-08-11T05:26:46;14.90;;;4.80;;
68310;SDS011;55157;51.036;17.058;2022-08-11T05:31:54;9.00;;;4.70;;
68310;SDS011;55157;51.036;17.058;2022-08-11T05:34:21;16.90;;;4.53;;
68310;SDS011;55157;51.036;17.058;2022-08-11T05:36:48;18.80;;;4.60;;
68310;SDS011;55157;51.036;17.058;2022-08-11T05:39:15;7.28;;;4.13;;
68310;SDS011;55157;51.036;17.058;2022-08-11T05:41:40;17.55;;;4.50;;
68310;SDS011;55157;51.036;17.058;2022-08-11T05:44:07;11.07;;;3.67;;
68310;SDS011;55157;51.036;17.058;2022-08-11T05:46:37;21.23;;;4.95;;
68310;SDS011;55157;51.036;17.058;2022-08-11T05:49:07;16.75;;;4.18;;
68310;SDS011;55157;51.036;17.058;2022-08-11T05:51:33;20.88;;;5.10;;
68310;SDS011;55157;51.036;17.058;2022-08-11T05:53:58;20.13;;;5.47;;
68310;SDS011;55157;51.036;17.058;2022-08-11T05:56:24;19.48;;;4.18;;
68310;SDS011;55157;51.036;17.058;2022-08-11T05:58:51;9.73;;;2.83;;
68310;SDS011;55157;51.036;17.058;2022-08-11T06:01:22;6.47;;;2.80;;
68310;SDS011;55157;51.036;17.058;2022-08-11T06:03:48;8.05;;;3.38;;
68310;SDS011;55157;51.036;17.058;2022-08-11T06:06:14;10.80;;;3.25;;
68310;SDS011;55157;51.036;17.058;2022-08-11T06:08:39;12.32;;;3.35;;
68310;SDS011;55157;51.036;17.058;2022-08-11T06:11:06;22.83;;;3.65;;
68310;SDS011;55157;51.036;17.058;2022-08-11T06:13:31;43.40;;;4.85;;
68310;SDS011;55157;51.036;17.058;2022-08-11T06:15:57;28.35;;;4.88;;
68310;SDS011;55157;51.036;17.058;2022-08-11T06:18:24;13.40;;;3.10;;
68310;SDS011;55157;51.036;17.058;2022-08-11T06:20:51;36.13;;;4.57;;
68310;SDS011;55157;51.036;17.058;2022-08-11T06:23:17;14.38;;;3.50;;
68310;SDS011;55157;51.036;17.058;2022-08-11T06:25:42;30.23;;;4.10;;
68310;SDS011;55157;51.036;17.058;2022-08-11T06:28:07;75.90;;;7.85;;
68310;SDS011;55157;51.036;17.058;2022-08-11T06:30:33;8.27;;;3.08;;
68310;SDS011;55157;51.036;17.058;2022-08-11T06:32:59;5.88;;;2.72;;
68310;SDS011;55157;51.036;17.058;2022-08-11T06:35:28;8.73;;;4.18;;
68310;SDS011;55157;51.036;17.058;2022-08-11T06:38:01;12.10;;;4.18;;
68310;SDS011;55157;51.036;17.058;2022-08-11T06:40:32;23.75;;;3.53;;
68310;SDS011;55157;51.036;17.058;2022-08-11T06:43:00;7.38;;;3.42;;
68310;SDS011;55157;51.036;17.058;2022-08-11T06:45:27;5.53;;;3.15;;
68310;SDS011;55157;51.036;17.058;2022-08-11T06:47:53;22.35;;;3.60;;
68310;SDS011;55157;51.036;17.058;2022-08-11T06:50:21;9.13;;;3.22;;
68310;SDS011;55157;51.036;17.058;2022-08-11T06:52:48;29.77;;;3.03;;
68310;SDS011;55157;51.036;17.058;2022-08-11T06:55:20;11.02;;;3.17;;
68310;SDS011;55157;51.036;17.058;2022-08-11T06:57:46;9.45;;;2.55;;
68310;SDS011;55157;51.036;17.058;2022-08-11T07:00:12;6.75;;;2.75;;
68310;SDS011;55157;51.036;17.058;2022-08-11T07:02:42;11.63;;;2.63;;
68310;SDS011;55157;51.036;17.058;2022-08-11T07:05:09;14.45;;;3.17;;
68310;SDS011;55157;51.036;17.058;2022-08-11T07:07:54;15.40;;;3.05;;
68310;SDS011;55157;51.036;17.058;2022-08-11T07:10:28;4.45;;;2.17;;
68310;SDS011;55157;51.036;17.058;2022-08-11T07:12:56;5.45;;;2.50;;
68310;SDS011;55157;51.036;17.058;2022-08-11T07:15:23;8.00;;;2.40;;
68310;SDS011;55157;51.036;17.058;2022-08-11T07:17:50;3.15;;;2.13;;
68310;SDS011;55157;51.036;17.058;2022-08-11T07:20:16;31.50;;;4.22;;
68310;SDS011;55157;51.036;17.058;2022-08-11T07:22:42;12.18;;;4.70;;
68310;SDS011;55157;51.036;17.058;2022-08-11T07:25:11;7.47;;;2.58;;
68310;SDS011;55157;51.036;17.058;2022-08-11T07:27:41;4.30;;;2.03;;
68310;SDS011;55157;51.036;17.058;2022-08-11T07:30:08;3.75;;;2.30;;
68310;SDS011;55157;51.036;17.058;2022-08-11T07:32:35;4.68;;;2.47;;
68310;SDS011;55157;51.036;17.058;2022-08-11T07:35:09;7.05;;;2.45;;
68310;SDS011;55157;51.036;17.058;2022-08-11T07:37:35;13.38;;;2.60;;
68310;SDS011;55157;51.036;17.058;2022-08-11T07:40:00;7.40;;;2.05;;
68310;SDS011;55157;51.036;17.058;2022-08-11T07:42:29;8.73;;;2.15;;
68310;SDS011;55157;51.036;17.058;2022-08-11T07:44:55;9.55;;;3.00;;
68310;SDS011;55157;51.036;17.058;2022-08-11T07:47:20;8.07;;;2.45;;
68310;SDS011;55157;51.036;17.058;2022-08-11T07:49:47;12.75;;;2.55;;
68310;SDS011;55157;51.036;17.058;2022-08-11T07:52:13;4.65;;;2.63;;
68310;SDS011;55157;51.036;17.058;2022-08-11T07:54:38;6.75;;;2.55;;
68310;SDS011;55157;51.036;17.058;2022-08-11T07:57:04;5.25;;;2.33;;
68310;SDS011;55157;51.036;17.058;2022-08-11T07:59:34;4.35;;;2.30;;
68310;SDS011;55157;51.036;17.058;2022-08-11T08:01:59;19.73;;;3.63;;
68310;SDS011;55157;51.036;17.058;2022-08-11T08:04:24;9.93;;;2.45;;
68310;SDS011;55157;51.036;17.058;2022-08-11T08:06:50;8.05;;;2.42;;
68310;SDS011;55157;51.036;17.058;2022-08-11T08:09:16;10.90;;;2.78;;
68310;SDS011;55157;51.036;17.058;2022-08-11T08:11:42;5.57;;;2.20;;
68310;SDS011;55157;51.036;17.058;2022-08-11T08:14:08;5.63;;;2.13;;
68310;SDS011;55157;51.036;17.058;2022-08-11T08:16:35;8.32;;;2.97;;
68310;SDS011;55157;51.036;17.058;2022-08-11T08:19:00;3.97;;;2.15;;
68310;SDS011;55157;51.036;17.058;2022-08-11T08:21:26;8.73;;;2.03;;
68310;SDS011;55157;51.036;17.058;2022-08-11T08:23:51;7.30;;;2.10;;
68310;SDS011;55157;51.036;17.058;2022-08-11T08:26:16;13.15;;;2.20;;
68310;SDS011;55157;51.036;17.058;2022-08-11T08:28:42;14.65;;;2.38;;
68310;SDS011;55157;51.036;17.058;2022-08-11T08:31:08;2.88;;;1.90;;
68310;SDS011;55157;51.036;17.058;2022-08-11T08:33:35;5.28;;;2.15;;
68310;SDS011;55157;51.036;17.058;2022-08-11T08:36:04;8.50;;;2.50;;
68310;SDS011;55157;51.036;17.058;2022-08-11T08:38:29;5.25;;;1.80;;
68310;SDS011;55157;51.036;17.058;2022-08-11T08:40:55;3.40;;;1.63;;
68310;SDS011;55157;51.036;17.058;2022-08-11T08:43:20;4.60;;;1.58;;
68310;SDS011;55157;51.036;17.058;2022-08-11T08:45:46;7.03;;;1.90;;
68310;SDS011;55157;51.036;17.058;2022-08-11T08:48:12;7.32;;;1.65;;
68310;SDS011;55157;51.036;17.058;2022-08-11T08:50:42;8.57;;;1.60;;
68310;SDS011;55157;51.036;17.058;2022-08-11T08:53:08;34.53;;;3.80;;
68310;SDS011;55157;51.036;17.058;2022-08-11T08:55:34;2.30;;;1.75;;
68310;SDS011;55157;51.036;17.058;2022-08-11T08:57:59;21.70;;;3.42;;
68310;SDS011;55157;51.036;17.058;2022-08-11T09:00:26;3.38;;;1.95;;
68310;SDS011;55157;51.036;17.058;2022-08-11T09:03:01;10.52;;;1.80;;
68310;SDS011;55157;51.036;17.058;2022-08-11T09:05:27;4.20;;;1.85;;
68310;SDS011;55157;51.036;17.058;2022-08-11T09:07:54;8.70;;;1.50;;
68310;SDS011;55157;51.036;17.058;2022-08-11T09:10:19;3.38;;;2.10;;
68310;SDS011;55157;51.036;17.058;2022-08-11T09:12:44;44.95;;;4.25;;
68310;SDS011;55157;51.036;17.058;2022-08-11T09:15:10;2.10;;;1.52;;
68310;SDS011;55157;51.036;17.058;2022-08-11T09:17:38;2.95;;;1.35;;
68310;SDS011;55157;51.036;17.058;2022-08-11T09:20:04;3.25;;;1.58;;
68310;SDS011;55157;51.036;17.058;2022-08-11T09:22:31;5.53;;;1.48;;
68310;SDS011;55157;51.036;17.058;2022-08-11T09:24:58;7.05;;;1.75;;
68310;SDS011;55157;51.036;17.058;2022-08-11T09:27:23;3.60;;;1.55;;
68310;SDS011;55157;51.036;17.058;2022-08-11T09:29:49;12.15;;;1.75;;
68310;SDS011;55157;51.036;17.058;2022-08-11T09:32:17;3.35;;;1.42;;
68310;SDS011;55157;51.036;17.058;2022-08-11T09:34:43;2.58;;;1.40;;
68310;SDS011;55157;51.036;17.058;2022-08-11T09:37:08;10.52;;;2.45;;
68310;SDS011;55157;51.036;17.058;2022-08-11T09:39:35;5.88;;;1.88;;
68310;SDS011;55157;51.036;17.058;2022-08-11T09:42:02;5.55;;;1.60;;
68310;SDS011;55157;51.036;17.058;2022-08-11T09:44:28;6.18;;;1.20;;
68310;SDS011;55157;51.036;17.058;2022-08-11T09:46:54;8.27;;;1.90;;
68310;SDS011;55157;51.036;17.058;2022-08-11T09:49:20;1.90;;;1.23;;
68310;SDS011;55157;51.036;17.058;2022-08-11T09:51:46;3.97;;;1.63;;
68310;SDS011;55157;51.036;17.058;2022-08-11T09:54:11;7.53;;;1.40;;
68310;SDS011;55157;51.036;17.058;2022-08-11T09:56:37;2.92;;;1.25;;
68310;SDS011;55157;51.036;17.058;2022-08-11T09:59:04;13.75;;;1.90;;
68310;SDS011;55157;51.036;17.058;2022-08-11T10:01:30;8.35;;;1.40;;
68310;SDS011;55157;51.036;17.058;2022-08-11T10:03:57;1.30;;;1.08;;
68310;SDS011;55157;51.036;17.058;2022-08-11T10:06:22;3.38;;;1.50;;
68310;SDS011;55157;51.036;17.058;2022-08-11T10:08:48;21.42;;;2.33;;
68310;SDS011;55157;51.036;17.058;2022-08-11T10:11:15;8.25;;;1.40;;
68310;SDS011;55157;51.036;17.058;2022-08-11T10:13:43;5.40;;;1.17;;
68310;SDS011;55157;51.036;17.058;2022-08-11T10:16:11;4.22;;;1.30;;
68310;SDS011;55157;51.036;17.058;2022-08-11T10:18:38;7.00;;;1.70;;
68310;SDS011;55157;51.036;17.058;2022-08-11T10:21:08;6.32;;;1.35;;
68310;SDS011;55157;51.036;17.058;2022-08-11T10:23:34;4.53;;;1.80;;
68310;SDS011;55157;51.036;17.058;2022-08-11T10:26:00;6.95;;;1.58;;
68310;SDS011;55157;51.036;17.058;2022-08-11T10:28:26;12.70;;;1.85;;
68310;SDS011;55157;51.036;17.058;2022-08-11T10:30:52;3.92;;;1.67;;
68310;SDS011;55157;51.036;17.058;2022-08-11T10:33:19;17.17;;;1.73;;
68310;SDS011;55157;51.036;17.058;2022-08-11T10:35:45;13.35;;;1.33;;
68310;SDS011;55157;51.036;17.058;2022-08-11T10:38:11;4.72;;;1.10;;
68310;SDS011;55157;51.036;17.058;2022-08-11T10:40:38;2.25;;;1.17;;
68310;SDS011;55157;51.036;17.058;2022-08-11T10:43:03;9.80;;;1.42;;
68310;SDS011;55157;51.036;17.058;2022-08-11T10:45:28;5.43;;;1.20;;
68310;SDS011;55157;51.036;17.058;2022-08-11T10:47:54;2.90;;;1.00;;
68310;SDS011;55157;51.036;17.058;2022-08-11T10:50:22;6.47;;;1.25;;
68310;SDS011;55157;51.036;17.058;2022-08-11T10:52:48;23.98;;;2.80;;
68310;SDS011;55157;51.036;17.058;2022-08-11T10:55:14;2.47;;;1.05;;
68310;SDS011;55157;51.036;17.058;2022-08-11T10:57:40;24.55;;;2.17;;
68310;SDS011;55157;51.036;17.058;2022-08-11T11:00:06;9.55;;;1.00;;
68310;SDS011;55157;51.036;17.058;2022-08-11T11:02:33;3.60;;;0.98;;
68310;SDS011;55157;51.036;17.058;2022-08-11T11:05:00;9.73;;;0.95;;
68310;SDS011;55157;51.036;17.058;2022-08-11T11:07:36;7.40;;;1.13;;
68310;SDS011;55157;51.036;17.058;2022-08-11T11:10:03;4.05;;;1.02;;
68310;SDS011;55157;51.036;17.058;2022-08-11T11:12:29;8.23;;;0.93;;
68310;SDS011;55157;51.036;17.058;2022-08-11T11:14:55;2.55;;;0.88;;
68310;SDS011;55157;51.036;17.058;2022-08-11T11:17:27;6.30;;;1.25;;
68310;SDS011;55157;51.036;17.058;2022-08-11T11:19:54;6.20;;;1.38;;
68310;SDS011;55157;51.036;17.058;2022-08-11T11:22:21;2.28;;;1.15;;
68310;SDS011;55157;51.036;17.058;2022-08-11T11:24:53;2.83;;;1.08;;
68310;SDS011;55157;51.036;17.058;2022-08-11T11:27:24;5.43;;;0.90;;
68310;SDS011;55157;51.036;17.058;2022-08-11T11:29:53;7.40;;;1.17;;
68310;SDS011;55157;51.036;17.058;2022-08-11T11:32:26;5.90;;;1.10;;
68310;SDS011;55157;51.036;17.058;2022-08-11T11:35:12;8.70;;;1.30;;
68310;SDS011;55157;51.036;17.058;2022-08-11T11:37:41;5.15;;;0.70;;
68310;SDS011;55157;51.036;17.058;2022-08-11T11:40:09;5.53;;;1.73;;
68310;SDS011;55157;51.036;17.058;2022-08-11T11:42:35;4.47;;;0.90;;
68310;SDS011;55157;51.036;17.058;2022-08-11T11:45:00;1.30;;;1.02;;
68310;SDS011;55157;51.036;17.058;2022-08-11T11:47:26;1.35;;;0.80;;
68310;SDS011;55157;51.036;17.058;2022-08-11T11:49:52;3.60;;;1.13;;
68310;SDS011;55157;51.036;17.058;2022-08-11T11:52:18;14.00;;;1.85;;
68310;SDS011;55157;51.036;17.058;2022-08-11T11:54:44;34.13;;;1.80;;
68310;SDS011;55157;51.036;17.058;2022-08-11T11:57:11;4.93;;;1.35;;
68310;SDS011;55157;51.036;17.058;2022-08-11T11:59:38;10.50;;;1.33;;
68310;SDS011;55157;51.036;17.058;2022-08-11T12:02:03;5.07;;;0.90;;
68310;SDS011;55157;51.036;17.058;2022-08-11T12:04:29;2.45;;;0.70;;
68310;SDS011;55157;51.036;17.058;2022-08-11T12:06:55;1.65;;;0.80;;
68310;SDS011;55157;51.036;17.058;2022-08-11T12:09:20;6.55;;;1.35;;
68310;SDS011;55157;51.036;17.058;2022-08-11T12:11:45;9.70;;;1.17;;
68310;SDS011;55157;51.036;17.058;2022-08-11T12:14:14;3.73;;;1.30;;
68310;SDS011;55157;51.036;17.058;2022-08-11T12:16:40;4.03;;;0.70;;
68310;SDS011;55157;51.036;17.058;2022-08-11T12:19:08;2.63;;;0.98;;
68310;SDS011;55157;51.036;17.058;2022-08-11T12:21:34;7.10;;;1.10;;
68310;SDS011;55157;51.036;17.058;2022-08-11T12:24:00;23.40;;;1.77;;
68310;SDS011;55157;51.036;17.058;2022-08-11T12:26:25;2.25;;;0.95;;
68310;SDS011;55157;51.036;17.058;2022-08-11T12:28:51;7.00;;;1.17;;
68310;SDS011;55157;51.036;17.058;2022-08-11T12:31:18;5.88;;;1.30;;
68310;SDS011;55157;51.036;17.058;2022-08-11T12:33:43;3.90;;;1.20;;
68310;SDS011;55157;51.036;17.058;2022-08-11T12:36:09;5.50;;;1.30;;
68310;SDS011;55157;51.036;17.058;2022-08-11T12:38:35;1.70;;;0.90;;
68310;SDS011;55157;51.036;17.058;2022-08-11T12:41:01;4.65;;;1.08;;
68310;SDS011;55157;51.036;17.058;2022-08-11T12:43:26;5.78;;;1.40;;
68310;SDS011;55157;51.036;17.058;2022-08-11T12:45:54;5.70;;;1.13;;
68310;SDS011;55157;51.036;17.058;2022-08-11T12:48:23;21.63;;;1.75;;
68310;SDS011;55157;51.036;17.058;2022-08-11T12:50:51;5.22;;;2.00;;
68310;SDS011;55157;51.036;17.058;2022-08-11T12:53:18;21.73;;;2.97;;
68310;SDS011;55157;51.036;17.058;2022-08-11T12:55:46;10.55;;;1.30;;
68310;SDS011;55157;51.036;17.058;2022-08-11T12:58:12;15.00;;;1.70;;
68310;SDS011;55157;51.036;17.058;2022-08-11T13:00:38;7.18;;;0.95;;
68310;SDS011;55157;51.036;17.058;2022-08-11T13:03:04;22.63;;;1.85;;
68310;SDS011;55157;51.036;17.058;2022-08-11T13:05:31;8.02;;;1.88;;
68310;SDS011;55157;51.036;17.058;2022-08-11T13:08:11;9.48;;;0.82;;
68310;SDS011;55157;51.036;17.058;2022-08-11T13:10:37;8.70;;;1.17;;
68310;SDS011;55157;51.036;17.058;2022-08-11T13:13:03;19.33;;;2.17;;
68310;SDS011;55157;51.036;17.058;2022-08-11T13:15:30;3.30;;;1.00;;
68310;SDS011;55157;51.036;17.058;2022-08-11T13:17:56;6.93;;;1.00;;
68310;SDS011;55157;51.036;17.058;2022-08-11T13:20:23;9.40;;;1.05;;
68310;SDS011;55157;51.036;17.058;2022-08-11T13:22:50;2.20;;;0.95;;
68310;SDS011;55157;51.036;17.058;2022-08-11T13:25:16;14.52;;;1.50;;
68310;SDS011;55157;51.036;17.058;2022-08-11T13:27:42;3.67;;;0.95;;
68310;SDS011;55157;51.036;17.058;2022-08-11T13:30:08;4.63;;;1.00;;
68310;SDS011;55157;51.036;17.058;2022-08-11T13:32:34;12.45;;;1.63;;
68310;SDS011;55157;51.036;17.058;2022-08-11T13:34:59;3.23;;;0.90;;
68310;SDS011;55157;51.036;17.058;2022-08-11T13:37:24;7.10;;;1.55;;
68310;SDS011;55157;51.036;17.058;2022-08-11T13:39:51;18.80;;;1.85;;
68310;SDS011;55157;51.036;17.058;2022-08-11T13:42:16;1.88;;;0.90;;
68310;SDS011;55157;51.036;17.058;2022-08-11T13:44:43;7.80;;;1.27;;
68310;SDS011;55157;51.036;17.058;2022-08-11T13:47:10;7.25;;;1.00;;
68310;SDS011;55157;51.036;17.058;2022-08-11T13:49:38;4.53;;;1.63;;
68310;SDS011;55157;51.036;17.058;2022-08-11T13:52:03;10.75;;;1.30;;
68310;SDS011;55157;51.036;17.058;2022-08-11T13:54:30;8.35;;;1.40;;
68310;SDS011;55157;51.036;17.058;2022-08-11T13:56:59;13.50;;;1.40;;
68310;SDS011;55157;51.036;17.058;2022-08-11T13:59:25;2.88;;;1.23;;
68310;SDS011;55157;51.036;17.058;2022-08-11T14:01:52;8.30;;;1.40;;
68310;SDS011;55157;51.036;17.058;2022-08-11T14:04:19;15.30;;;1.75;;
68310;SDS011;55157;51.036;17.058;2022-08-11T14:06:48;4.30;;;1.73;;
68310;SDS011;55157;51.036;17.058;2022-08-11T14:09:14;3.17;;;1.35;;
68310;SDS011;55157;51.036;17.058;2022-08-11T14:11:40;5.65;;;1.30;;
68310;SDS011;55157;51.036;17.058;2022-08-11T14:14:08;4.82;;;1.17;;
68310;SDS011;55157;51.036;17.058;2022-08-11T14:16:37;5.88;;;0.90;;
68310;SDS011;55157;51.036;17.058;2022-08-11T14:19:05;9.18;;;1.55;;
68310;SDS011;55157;51.036;17.058;2022-08-11T14:21:32;2.55;;;1.40;;
68310;SDS011;55157;51.036;17.058;2022-08-11T14:23:59;5.25;;;1.10;;
68310;SDS011;55157;51.036;17.058;2022-08-11T14:26:26;6.65;;;1.25;;
68310;SDS011;55157;51.036;17.058;2022-08-11T14:28:52;6.10;;;1.33;;
68310;SDS011;55157;51.036;17.058;2022-08-11T14:31:20;2.25;;;1.00;;
68310;SDS011;55157;51.036;17.058;2022-08-11T14:33:46;5.10;;;1.17;;
68310;SDS011;55157;51.036;17.058;2022-08-11T14:36:11;5.28;;;0.88;;
68310;SDS011;55157;51.036;17.058;2022-08-11T14:38:37;4.00;;;1.08;;
68310;SDS011;55157;51.036;17.058;2022-08-11T14:41:03;4.70;;;1.30;;
68310;SDS011;55157;51.036;17.058;2022-08-11T14:43:29;10.13;;;1.63;;
68310;SDS011;55157;51.036;17.058;2022-08-11T14:45:54;14.38;;;1.27;;
68310;SDS011;55157;51.036;17.058;2022-08-11T14:48:22;20.98;;;1.58;;
68310;SDS011;55157;51.036;17.058;2022-08-11T14:50:47;12.45;;;2.00;;
68310;SDS011;55157;51.036;17.058;2022-08-11T14:53:13;13.70;;;1.40;;
68310;SDS011;55157;51.036;17.058;2022-08-11T14:55:39;10.98;;;1.83;;
68310;SDS011;55157;51.036;17.058;2022-08-11T14:58:07;5.85;;;1.00;;
68310;SDS011;55157;51.036;17.058;2022-08-11T15:00:33;8.02;;;1.38;;
68310;SDS011;55157;51.036;17.058;2022-08-11T15:02:58;11.70;;;1.67;;
68310;SDS011;55157;51.036;17.058;2022-08-11T15:05:26;11.32;;;1.63;;
68310;SDS011;55157;51.036;17.058;2022-08-11T15:07:52;7.70;;;1.30;;
68310;SDS011;55157;51.036;17.058;2022-08-11T15:10:18;5.00;;;0.80;;
68310;SDS011;55157;51.036;17.058;2022-08-11T15:12:43;11.70;;;1.27;;
68310;SDS011;55157;51.036;17.058;2022-08-11T15:15:09;4.45;;;1.52;;
68310;SDS011;55157;51.036;17.058;2022-08-11T15:17:35;15.77;;;1.90;;
68310;SDS011;55157;51.036;17.058;2022-08-11T15:20:03;4.32;;;1.30;;
68310;SDS011;55157;51.036;17.058;2022-08-11T15:22:30;9.07;;;1.38;;
68310;SDS011;55157;51.036;17.058;2022-08-11T15:24:56;11.43;;;1.52;;
68310;SDS011;55157;51.036;17.058;2022-08-11T15:27:22;2.95;;;1.30;;
68310;SDS011;55157;51.036;17.058;2022-08-11T15:29:47;11.45;;;1.50;;